sensor_id;sensor_type;location;lat;lon;timestamp;pressure;altitude;pressure_sealevel;temperature;humidity
56241;BME280;42155;53.096;23.226;2023-03-15T00:01:58;98075.81;;;7.56;78.89
56241;BME280;42155;53.096;23.226;2023-03-15T00:03:59;98080.56;;;7.52;78.64
56241;BME280;42155;53.096;23.226;2023-03-15T00:05:59;98082.38;;;7.52;78.97
56241;BME280;42155;53.096;23.226;2023-03-15T00:08:00;98066.06;;;7.38;78.93
56241;BME280;42155;53.096;23.226;2023-03-15T00:10:00;98069.94;;;7.44;78.92
56241;BME280;42155;53.096;23.226;2023-03-15T00:12:01;98084.19;;;7.51;79.35
56241;BME280;42155;53.096;23.226;2023-03-15T00:14:02;98089.31;;;7.53;78.98
56241;BME280;42155;53.096;23.226;2023-03-15T00:16:02;98091.28;;;7.51;78.76
56241;BME280;42155;53.096;23.226;2023-03-15T00:18:03;98087.81;;;7.50;78.78
56241;BME280;42155;53.096;23.226;2023-03-15T00:20:03;98078.00;;;7.43;79.39
56241;BME280;42155;53.096;23.226;2023-03-15T00:22:04;98088.09;;;7.47;79.17
56241;BME280;42155;53.096;23.226;2023-03-15T00:24:05;98077.16;;;7.42;79.61
56241;BME280;42155;53.096;23.226;2023-03-15T00:26:05;98086.38;;;7.38;79.28
56241;BME280;42155;53.096;23.226;2023-03-15T00:28:06;98092.03;;;7.43;79.60
56241;BME280;42155;53.096;23.226;2023-03-15T00:30:06;98081.41;;;7.35;79.22
56241;BME280;42155;53.096;23.226;2023-03-15T00:32:07;98100.75;;;7.44;79.61
56241;BME280;42155;53.096;23.226;2023-03-15T00:34:07;98103.84;;;7.39;79.26
56241;BME280;42155;53.096;23.226;2023-03-15T00:36:09;98103.84;;;7.39;79.97
56241;BME280;42155;53.096;23.226;2023-03-15T00:38:10;98074.41;;;7.16;79.52
56241;BME280;42155;53.096;23.226;2023-03-15T00:40:11;98061.00;;;7.09;79.74
56241;BME280;42155;53.096;23.226;2023-03-15T00:42:13;98118.03;;;7.38;79.99
56241;BME280;42155;53.096;23.226;2023-03-15T00:44:13;98105.59;;;7.30;79.80
56241;BME280;42155;53.096;23.226;2023-03-15T00:46:14;98121.66;;;7.37;79.99
56241;BME280;42155;53.096;23.226;2023-03-15T00:48:15;98117.50;;;7.34;79.46
56241;BME280;42155;53.096;23.226;2023-03-15T00:50:16;98120.28;;;7.33;80.02
56241;BME280;42155;53.096;23.226;2023-03-15T00:52:17;98125.56;;;7.33;79.54
56241;BME280;42155;53.096;23.226;2023-03-15T00:54:17;98120.28;;;7.33;79.92
56241;BME280;42155;53.096;23.226;2023-03-15T00:56:25;98137.31;;;7.38;80.20
56241;BME280;42155;53.096;23.226;2023-03-15T00:58:26;98132.75;;;7.40;79.58
56241;BME280;42155;53.096;23.226;2023-03-15T01:00:26;98142.03;;;7.45;79.34
56241;BME280;42155;53.096;23.226;2023-03-15T01:02:26;98138.25;;;7.47;79.44
56241;BME280;42155;53.096;23.226;2023-03-15T01:04:27;98124.00;;;7.40;79.96
56241;BME280;42155;53.096;23.226;2023-03-15T01:06:28;98146.88;;;7.49;79.91
56241;BME280;42155;53.096;23.226;2023-03-15T01:08:28;98147.53;;;7.51;79.75
56241;BME280;42155;53.096;23.226;2023-03-15T01:10:28;98154.34;;;7.54;79.94
56241;BME280;42155;53.096;23.226;2023-03-15T01:12:30;98114.72;;;7.36;79.34
56241;BME280;42155;53.096;23.226;2023-03-15T01:14:31;98161.81;;;7.58;79.92
56241;BME280;42155;53.096;23.226;2023-03-15T01:16:32;98165.13;;;7.60;79.27
56241;BME280;42155;53.096;23.226;2023-03-15T01:18:32;98150.72;;;7.55;79.90
56241;BME280;42155;53.096;23.226;2023-03-15T01:20:32;98165.66;;;7.64;79.80
56241;BME280;42155;53.096;23.226;2023-03-15T01:22:33;98157.03;;;7.62;79.60
56241;BME280;42155;53.096;23.226;2023-03-15T01:24:33;98160.06;;;7.67;79.74
56241;BME280;42155;53.096;23.226;2023-03-15T01:26:33;98153.97;;;7.66;79.49
56241;BME280;42155;53.096;23.226;2023-03-15T01:28:34;98156.97;;;7.72;79.85
56241;BME280;42155;53.096;23.226;2023-03-15T01:30:34;98159.31;;;7.75;79.18
56241;BME280;42155;53.096;23.226;2023-03-15T01:32:34;98160.03;;;7.77;79.45
56241;BME280;42155;53.096;23.226;2023-03-15T01:34:35;98166.97;;;7.78;79.79
56241;BME280;42155;53.096;23.226;2023-03-15T01:36:35;98142.56;;;7.66;79.36
56241;BME280;42155;53.096;23.226;2023-03-15T01:38:36;98167.78;;;7.78;79.21
56241;BME280;42155;53.096;23.226;2023-03-15T01:40:41;98168.91;;;7.76;79.19
56241;BME280;42155;53.096;23.226;2023-03-15T01:45:48;98144.50;;;7.46;79.23
56241;BME280;42155;53.096;23.226;2023-03-15T01:47:24;98170.41;;;7.60;79.59
56241;BME280;42155;53.096;23.226;2023-03-15T01:49:28;98178.47;;;7.59;79.52
56241;BME280;42155;53.096;23.226;2023-03-15T01:53:32;98171.97;;;7.53;79.76
56241;BME280;42155;53.096;23.226;2023-03-15T01:55:33;98171.72;;;7.47;79.44
56241;BME280;42155;53.096;23.226;2023-03-15T01:57:48;98181.19;;;7.49;79.61
56241;BME280;42155;53.096;23.226;2023-03-15T02:00:08;98159.19;;;7.31;79.11
56241;BME280;42155;53.096;23.226;2023-03-15T02:02:10;98174.47;;;7.27;79.37
56241;BME280;42155;53.096;23.226;2023-03-15T02:04:17;98189.16;;;7.30;79.38
56241;BME280;42155;53.096;23.226;2023-03-15T02:06:21;98144.94;;;6.86;79.02
56241;BME280;42155;53.096;23.226;2023-03-15T02:08:26;98200.31;;;7.24;79.48
56241;BME280;42155;53.096;23.226;2023-03-15T02:10:33;98199.25;;;7.17;79.25
56241;BME280;42155;53.096;23.226;2023-03-15T02:12:37;98215.16;;;7.25;79.11
56241;BME280;42155;53.096;23.226;2023-03-15T02:14:39;98234.47;;;7.25;79.22
56241;BME280;42155;53.096;23.226;2023-03-15T02:16:41;98227.53;;;7.24;79.37
56241;BME280;42155;53.096;23.226;2023-03-15T02:18:41;98198.72;;;7.13;79.61
56241;BME280;42155;53.096;23.226;2023-03-15T02:23:14;98241.78;;;7.41;79.15
56241;BME280;42155;53.096;23.226;2023-03-15T02:27:36;98237.94;;;7.53;79.33
56241;BME280;42155;53.096;23.226;2023-03-15T02:29:36;98246.69;;;7.63;79.35
56241;BME280;42155;53.096;23.226;2023-03-15T02:31:37;98217.16;;;7.50;79.08
56241;BME280;42155;53.096;23.226;2023-03-15T02:33:43;98230.84;;;7.63;79.34
56241;BME280;42155;53.096;23.226;2023-03-15T02:35:44;98233.25;;;7.75;79.21
56241;BME280;42155;53.096;23.226;2023-03-15T02:37:45;98246.94;;;7.88;79.33
56241;BME280;42155;53.096;23.226;2023-03-15T02:39:45;98211.22;;;7.66;79.03
56241;BME280;42155;53.096;23.226;2023-03-15T02:41:54;98252.31;;;7.96;79.32
56241;BME280;42155;53.096;23.226;2023-03-15T02:44:02;98234.72;;;7.87;79.48
56241;BME280;42155;53.096;23.226;2023-03-15T02:46:04;98256.84;;;8.04;78.51
56241;BME280;42155;53.096;23.226;2023-03-15T02:48:05;98261.56;;;8.10;79.33
56241;BME280;42155;53.096;23.226;2023-03-15T02:50:06;98258.47;;;8.14;78.44
56241;BME280;42155;53.096;23.226;2023-03-15T02:52:07;98249.91;;;8.03;78.86
56241;BME280;42155;53.096;23.226;2023-03-15T02:54:08;98233.69;;;7.98;78.75
56241;BME280;42155;53.096;23.226;2023-03-15T02:56:08;98267.06;;;8.16;79.11
56241;BME280;42155;53.096;23.226;2023-03-15T02:58:09;98284.81;;;8.24;78.71
56241;BME280;42155;53.096;23.226;2023-03-15T03:00:10;98289.78;;;8.27;79.24
56241;BME280;42155;53.096;23.226;2023-03-15T03:02:11;98284.03;;;8.32;78.84
56241;BME280;42155;53.096;23.226;2023-03-15T03:04:11;98300.59;;;8.34;79.12
56241;BME280;42155;53.096;23.226;2023-03-15T03:06:13;98296.16;;;8.34;78.65
56241;BME280;42155;53.096;23.226;2023-03-15T03:08:14;98337.59;;;8.34;79.27
56241;BME280;42155;53.096;23.226;2023-03-15T03:10:16;98351.63;;;8.16;78.35
56241;BME280;42155;53.096;23.226;2023-03-15T03:12:17;98366.75;;;7.97;78.60
56241;BME280;42155;53.096;23.226;2023-03-15T03:14:17;98352.16;;;7.55;77.86
56241;BME280;42155;53.096;23.226;2023-03-15T03:16:18;98388.72;;;7.50;77.41
56241;BME280;42155;53.096;23.226;2023-03-15T03:18:18;98386.25;;;7.29;77.09
56241;BME280;42155;53.096;23.226;2023-03-15T03:20:18;98361.84;;;6.88;77.31
56241;BME280;42155;53.096;23.226;2023-03-15T03:22:19;98412.81;;;6.89;77.43
56241;BME280;42155;53.096;23.226;2023-03-15T03:24:20;98370.97;;;6.46;76.85
56241;BME280;42155;53.096;23.226;2023-03-15T03:26:20;98423.41;;;6.49;76.48
56241;BME280;42155;53.096;23.226;2023-03-15T03:28:25;98417.22;;;6.19;77.24
56241;BME280;42155;53.096;23.226;2023-03-15T03:30:26;98439.84;;;6.22;77.51
56241;BME280;42155;53.096;23.226;2023-03-15T03:32:27;98444.25;;;6.11;76.92
56241;BME280;42155;53.096;23.226;2023-03-15T03:34:27;98443.81;;;6.06;77.08
56241;BME280;42155;53.096;23.226;2023-03-15T03:36:27;98451.22;;;5.71;76.74
56241;BME280;42155;53.096;23.226;2023-03-15T03:38:28;98443.19;;;5.30;76.75
56241;BME280;42155;53.096;23.226;2023-03-15T03:40:28;98445.53;;;5.13;77.55
56241;BME280;42155;53.096;23.226;2023-03-15T03:42:28;98486.63;;;5.25;77.68
56241;BME280;42155;53.096;23.226;2023-03-15T03:44:29;98491.19;;;5.23;77.09
56241;BME280;42155;53.096;23.226;2023-03-15T03:46:29;98509.59;;;5.23;76.93
56241;BME280;42155;53.096;23.226;2023-03-15T03:48:29;98515.50;;;5.04;76.27
56241;BME280;42155;53.096;23.226;2023-03-15T03:50:30;98533.81;;;4.83;76.67
56241;BME280;42155;53.096;23.226;2023-03-15T03:52:30;98530.63;;;4.57;76.61
56241;BME280;42155;53.096;23.226;2023-03-15T03:54:31;98556.91;;;4.46;76.58
56241;BME280;42155;53.096;23.226;2023-03-15T03:56:31;98563.00;;;4.46;76.34
56241;BME280;42155;53.096;23.226;2023-03-15T03:58:31;98552.97;;;4.40;75.79
56241;BME280;42155;53.096;23.226;2023-03-15T04:00:32;98576.84;;;4.48;75.23
56241;BME280;42155;53.096;23.226;2023-03-15T04:02:32;98589.25;;;4.46;75.18
56241;BME280;42155;53.096;23.226;2023-03-15T04:04:32;98601.91;;;4.41;75.54
56241;BME280;42155;53.096;23.226;2023-03-15T04:06:33;98597.16;;;4.35;74.90
56241;BME280;42155;53.096;23.226;2023-03-15T04:08:33;98556.00;;;3.89;75.42
56241;BME280;42155;53.096;23.226;2023-03-15T04:10:34;98620.19;;;3.96;76.16
56241;BME280;42155;53.096;23.226;2023-03-15T04:12:34;98623.22;;;3.79;75.99
56241;BME280;42155;53.096;23.226;2023-03-15T04:14:34;98629.06;;;3.71;76.88
56241;BME280;42155;53.096;23.226;2023-03-15T04:16:35;98648.72;;;3.66;76.69
56241;BME280;42155;53.096;23.226;2023-03-15T04:18:35;98660.13;;;3.65;77.00
56241;BME280;42155;53.096;23.226;2023-03-15T04:20:36;98606.56;;;3.32;77.26
56241;BME280;42155;53.096;23.226;2023-03-15T04:22:36;98663.88;;;3.73;77.31
56241;BME280;42155;53.096;23.226;2023-03-15T04:24:37;98685.50;;;3.77;77.05
56241;BME280;42155;53.096;23.226;2023-03-15T04:26:37;98688.25;;;3.75;76.65
56241;BME280;42155;53.096;23.226;2023-03-15T04:28:37;98705.28;;;3.70;77.02
56241;BME280;42155;53.096;23.226;2023-03-15T04:30:38;98711.78;;;3.64;77.13
56241;BME280;42155;53.096;23.226;2023-03-15T04:32:38;98703.69;;;3.43;76.99
56241;BME280;42155;53.096;23.226;2023-03-15T04:34:38;98685.88;;;3.23;78.06
56241;BME280;42155;53.096;23.226;2023-03-15T04:36:39;98682.72;;;3.30;78.39
56241;BME280;42155;53.096;23.226;2023-03-15T04:38:39;98705.78;;;3.38;78.13
56241;BME280;42155;53.096;23.226;2023-03-15T04:40:40;98690.72;;;3.29;77.90
56241;BME280;42155;53.096;23.226;2023-03-15T04:42:40;98723.59;;;3.46;78.41
56241;BME280;42155;53.096;23.226;2023-03-15T04:44:40;98738.72;;;3.42;77.76
56241;BME280;42155;53.096;23.226;2023-03-15T04:46:43;98749.09;;;3.44;78.59
56241;BME280;42155;53.096;23.226;2023-03-15T04:48:44;98734.41;;;3.41;78.00
56241;BME280;42155;53.096;23.226;2023-03-15T04:50:44;98754.03;;;3.48;78.08
56241;BME280;42155;53.096;23.226;2023-03-15T04:52:44;98757.47;;;3.49;78.42
56241;BME280;42155;53.096;23.226;2023-03-15T04:54:45;98772.16;;;3.51;77.97
56241;BME280;42155;53.096;23.226;2023-03-15T04:56:45;98742.06;;;3.44;77.96
56241;BME280;42155;53.096;23.226;2023-03-15T04:58:45;98759.63;;;3.68;77.87
56241;BME280;42155;53.096;23.226;2023-03-15T05:00:46;98710.13;;;3.50;77.84
56241;BME280;42155;53.096;23.226;2023-03-15T05:02:46;98741.72;;;3.62;77.80
56241;BME280;42155;53.096;23.226;2023-03-15T05:04:46;98752.41;;;3.58;77.67
56241;BME280;42155;53.096;23.226;2023-03-15T05:06:47;98706.22;;;3.32;77.72
56241;BME280;42155;53.096;23.226;2023-03-15T05:08:47;98725.50;;;3.44;77.69
56241;BME280;42155;53.096;23.226;2023-03-15T05:10:47;98746.88;;;3.50;77.47
56241;BME280;42155;53.096;23.226;2023-03-15T05:12:48;98756.97;;;3.31;78.25
56241;BME280;42155;53.096;23.226;2023-03-15T05:14:48;98759.31;;;3.10;78.81
56241;BME280;42155;53.096;23.226;2023-03-15T05:16:48;98776.91;;;3.21;78.76
56241;BME280;42155;53.096;23.226;2023-03-15T05:18:49;98793.88;;;3.28;78.21
56241;BME280;42155;53.096;23.226;2023-03-15T05:20:49;98792.00;;;3.30;78.48
56241;BME280;42155;53.096;23.226;2023-03-15T05:22:50;98788.44;;;3.18;78.60
56241;BME280;42155;53.096;23.226;2023-03-15T05:24:51;98797.06;;;3.20;78.35
56241;BME280;42155;53.096;23.226;2023-03-15T05:26:51;98805.00;;;3.19;78.14
56241;BME280;42155;53.096;23.226;2023-03-15T05:28:51;98813.00;;;3.17;78.18
56241;BME280;42155;53.096;23.226;2023-03-15T05:30:52;98819.06;;;3.18;78.21
56241;BME280;42155;53.096;23.226;2023-03-15T05:32:52;98785.53;;;2.97;78.21
56241;BME280;42155;53.096;23.226;2023-03-15T05:34:53;98820.13;;;3.15;78.62
56241;BME280;42155;53.096;23.226;2023-03-15T05:36:53;98809.44;;;3.05;78.53
56241;BME280;42155;53.096;23.226;2023-03-15T05:38:53;98842.16;;;3.25;77.98
56241;BME280;42155;53.096;23.226;2023-03-15T05:40:53;98833.84;;;3.31;78.09
56241;BME280;42155;53.096;23.226;2023-03-15T05:42:55;98810.03;;;3.09;78.18
56241;BME280;42155;53.096;23.226;2023-03-15T05:44:55;98850.75;;;3.40;77.87
56241;BME280;42155;53.096;23.226;2023-03-15T05:46:56;98857.66;;;3.41;78.25
56241;BME280;42155;53.096;23.226;2023-03-15T05:48:56;98842.03;;;3.27;78.18
56241;BME280;42155;53.096;23.226;2023-03-15T05:50:57;98866.69;;;3.37;78.35
56241;BME280;42155;53.096;23.226;2023-03-15T05:52:57;98873.41;;;3.41;77.83
56241;BME280;42155;53.096;23.226;2023-03-15T05:54:57;98866.38;;;3.29;78.08
56241;BME280;42155;53.096;23.226;2023-03-15T05:56:58;98901.09;;;3.45;78.47
56241;BME280;42155;53.096;23.226;2023-03-15T05:58:58;98895.31;;;3.40;77.91
56241;BME280;42155;53.096;23.226;2023-03-15T06:00:58;98919.78;;;3.53;77.89
56241;BME280;42155;53.096;23.226;2023-03-15T06:02:59;98927.44;;;3.56;78.42
56241;BME280;42155;53.096;23.226;2023-03-15T06:04:59;98934.69;;;3.53;78.07
56241;BME280;42155;53.096;23.226;2023-03-15T06:06:59;98930.69;;;3.47;77.69
56241;BME280;42155;53.096;23.226;2023-03-15T06:09:00;98936.34;;;3.54;77.79
56241;BME280;42155;53.096;23.226;2023-03-15T06:11:00;98882.75;;;3.20;78.09
56241;BME280;42155;53.096;23.226;2023-03-15T06:13:00;98946.41;;;3.60;77.62
56241;BME280;42155;53.096;23.226;2023-03-15T06:15:01;98935.72;;;3.63;78.03
56241;BME280;42155;53.096;23.226;2023-03-15T06:17:01;98921.97;;;3.60;77.80
56241;BME280;42155;53.096;23.226;2023-03-15T06:19:02;98894.38;;;3.28;77.82
56241;BME280;42155;53.096;23.226;2023-03-15T06:21:02;98953.44;;;3.60;77.47
56241;BME280;42155;53.096;23.226;2023-03-15T06:23:02;98953.25;;;3.63;77.53
56241;BME280;42155;53.096;23.226;2023-03-15T06:25:03;98963.44;;;3.67;77.97
56241;BME280;42155;53.096;23.226;2023-03-15T06:27:03;98958.91;;;3.69;77.31
56241;BME280;42155;53.096;23.226;2023-03-15T06:29:04;98926.69;;;3.54;77.71
56241;BME280;42155;53.096;23.226;2023-03-15T06:31:08;98977.06;;;3.72;77.27
56241;BME280;42155;53.096;23.226;2023-03-15T06:33:09;98984.84;;;3.74;77.37
56241;BME280;42155;53.096;23.226;2023-03-15T06:35:09;98973.41;;;3.75;77.72
56241;BME280;42155;53.096;23.226;2023-03-15T06:37:09;98988.41;;;3.86;77.69
56241;BME280;42155;53.096;23.226;2023-03-15T06:39:11;98994.19;;;3.91;77.37
56241;BME280;42155;53.096;23.226;2023-03-15T06:41:11;98967.22;;;3.76;77.40
56241;BME280;42155;53.096;23.226;2023-03-15T06:43:11;99001.31;;;4.01;76.74
56241;BME280;42155;53.096;23.226;2023-03-15T06:45:12;99015.91;;;4.05;77.00
56241;BME280;42155;53.096;23.226;2023-03-15T06:47:12;99035.06;;;4.07;76.96
56241;BME280;42155;53.096;23.226;2023-03-15T06:49:12;99033.34;;;4.06;76.59
56241;BME280;42155;53.096;23.226;2023-03-15T06:51:13;99036.59;;;4.10;77.12
56241;BME280;42155;53.096;23.226;2023-03-15T06:53:14;99033.34;;;4.06;76.64
56241;BME280;42155;53.096;23.226;2023-03-15T06:55:15;99039.66;;;4.04;76.44
56241;BME280;42155;53.096;23.226;2023-03-15T06:57:15;99045.88;;;4.03;77.38
56241;BME280;42155;53.096;23.226;2023-03-15T06:59:16;99041.13;;;3.95;76.80
56241;BME280;42155;53.096;23.226;2023-03-15T07:01:16;99067.59;;;4.18;76.67
56241;BME280;42155;53.096;23.226;2023-03-15T07:03:16;99059.84;;;4.16;76.78
56241;BME280;42155;53.096;23.226;2023-03-15T07:05:17;99064.84;;;4.19;76.43
56241;BME280;42155;53.096;23.226;2023-03-15T07:07:17;99044.47;;;4.10;76.65
56241;BME280;42155;53.096;23.226;2023-03-15T07:09:17;99024.34;;;3.98;76.85
56241;BME280;42155;53.096;23.226;2023-03-15T07:11:18;99058.97;;;4.16;76.35
56241;BME280;42155;53.096;23.226;2023-03-15T07:13:19;99076.63;;;4.39;75.91
56241;BME280;42155;53.096;23.226;2023-03-15T07:15:19;99081.34;;;4.47;76.35
56241;BME280;42155;53.096;23.226;2023-03-15T07:17:19;99081.22;;;4.48;75.67
56241;BME280;42155;53.096;23.226;2023-03-15T07:19:20;99088.38;;;4.59;76.16
56241;BME280;42155;53.096;23.226;2023-03-15T07:21:20;99094.03;;;4.66;75.81
56241;BME280;42155;53.096;23.226;2023-03-15T07:23:21;99079.34;;;4.63;74.95
56241;BME280;42155;53.096;23.226;2023-03-15T07:25:21;99071.34;;;4.65;75.27
56241;BME280;42155;53.096;23.226;2023-03-15T07:27:21;99091.09;;;4.70;74.76
56241;BME280;42155;53.096;23.226;2023-03-15T07:29:23;99083.00;;;4.60;74.75
56241;BME280;42155;53.096;23.226;2023-03-15T07:31:23;99102.88;;;4.65;75.02
56241;BME280;42155;53.096;23.226;2023-03-15T07:33:25;99106.47;;;4.64;74.92
56241;BME280;42155;53.096;23.226;2023-03-15T07:35:25;99080.06;;;4.52;74.70
56241;BME280;42155;53.096;23.226;2023-03-15T07:37:27;99108.53;;;4.71;74.42
56241;BME280;42155;53.096;23.226;2023-03-15T07:39:27;99107.69;;;4.71;74.38
56241;BME280;42155;53.096;23.226;2023-03-15T07:41:28;99100.75;;;4.70;74.12
56241;BME280;42155;53.096;23.226;2023-03-15T07:43:28;99080.00;;;4.54;73.47
56241;BME280;42155;53.096;23.226;2023-03-15T07:45:29;99103.91;;;4.62;74.03
56241;BME280;42155;53.096;23.226;2023-03-15T07:47:29;99090.06;;;4.60;73.76
56241;BME280;42155;53.096;23.226;2023-03-15T07:49:29;99106.78;;;4.72;73.38
56241;BME280;42155;53.096;23.226;2023-03-15T07:51:30;99103.59;;;4.79;73.79
56241;BME280;42155;53.096;23.226;2023-03-15T07:53:30;99103.50;;;4.81;73.51
56241;BME280;42155;53.096;23.226;2023-03-15T07:55:34;99094.41;;;4.85;73.07
56241;BME280;42155;53.096;23.226;2023-03-15T07:57:34;99097.25;;;4.95;72.61
56241;BME280;42155;53.096;23.226;2023-03-15T07:59:35;99082.91;;;4.99;72.38
56241;BME280;42155;53.096;23.226;2023-03-15T08:01:35;99102.56;;;5.19;71.81
56241;BME280;42155;53.096;23.226;2023-03-15T08:03:35;99095.72;;;5.16;71.54
56241;BME280;42155;53.096;23.226;2023-03-15T08:05:36;99112.63;;;5.25;71.79
56241;BME280;42155;53.096;23.226;2023-03-15T08:07:36;99097.28;;;5.19;71.67
56241;BME280;42155;53.096;23.226;2023-03-15T08:09:36;99110.44;;;5.19;71.23
56241;BME280;42155;53.096;23.226;2023-03-15T08:11:37;99113.91;;;5.19;71.56
56241;BME280;42155;53.096;23.226;2023-03-15T08:13:37;99101.28;;;5.11;72.03
56241;BME280;42155;53.096;23.226;2023-03-15T08:15:37;99129.41;;;5.35;71.11
56241;BME280;42155;53.096;23.226;2023-03-15T08:17:38;99125.63;;;5.39;71.16
56241;BME280;42155;53.096;23.226;2023-03-15T08:19:39;99138.25;;;5.34;70.94
56241;BME280;42155;53.096;23.226;2023-03-15T08:21:39;99134.63;;;5.24;70.85
56241;BME280;42155;53.096;23.226;2023-03-15T08:23:39;99155.97;;;5.32;71.47
56241;BME280;42155;53.096;23.226;2023-03-15T08:25:40;99150.97;;;5.40;70.95
56241;BME280;42155;53.096;23.226;2023-03-15T08:27:41;99157.16;;;5.52;70.79
56241;BME280;42155;53.096;23.226;2023-03-15T08:29:41;99152.78;;;5.63;70.63
56241;BME280;42155;53.096;23.226;2023-03-15T08:31:41;99146.06;;;5.59;70.21
56241;BME280;42155;53.096;23.226;2023-03-15T08:33:42;99145.00;;;5.62;69.75
56241;BME280;42155;53.096;23.226;2023-03-15T08:35:42;99152.78;;;5.87;69.58
56241;BME280;42155;53.096;23.226;2023-03-15T08:37:43;99154.66;;;6.09;68.79
56241;BME280;42155;53.096;23.226;2023-03-15T08:39:43;99163.13;;;6.26;68.80
56241;BME280;42155;53.096;23.226;2023-03-15T08:41:44;99165.53;;;6.40;67.96
56241;BME280;42155;53.096;23.226;2023-03-15T08:43:44;99169.06;;;6.52;67.48
56241;BME280;42155;53.096;23.226;2023-03-15T08:45:44;99108.69;;;6.02;67.53
56241;BME280;42155;53.096;23.226;2023-03-15T08:47:45;99178.44;;;6.32;67.82
56241;BME280;42155;53.096;23.226;2023-03-15T08:49:45;99191.06;;;6.40;67.17
56241;BME280;42155;53.096;23.226;2023-03-15T08:51:46;99193.13;;;6.47;66.87
56241;BME280;42155;53.096;23.226;2023-03-15T08:53:46;99197.09;;;6.53;66.77
56241;BME280;42155;53.096;23.226;2023-03-15T08:55:47;99201.53;;;6.52;66.65
56241;BME280;42155;53.096;23.226;2023-03-15T08:57:47;99209.44;;;6.63;66.57
56241;BME280;42155;53.096;23.226;2023-03-15T08:59:48;99186.19;;;6.69;66.22
56241;BME280;42155;53.096;23.226;2023-03-15T09:01:48;99182.72;;;6.79;65.54
56241;BME280;42155;53.096;23.226;2023-03-15T09:03:48;99212.72;;;6.89;65.25
56241;BME280;42155;53.096;23.226;2023-03-15T09:05:49;99216.81;;;6.94;65.12
56241;BME280;42155;53.096;23.226;2023-03-15T09:07:49;99217.41;;;7.20;65.27
56241;BME280;42155;53.096;23.226;2023-03-15T09:09:50;99217.38;;;7.42;64.53
56241;BME280;42155;53.096;23.226;2023-03-15T09:11:50;99221.44;;;7.57;63.90
56241;BME280;42155;53.096;23.226;2023-03-15T09:13:50;99207.03;;;7.61;63.55
56241;BME280;42155;53.096;23.226;2023-03-15T09:15:52;99198.19;;;7.51;63.34
56241;BME280;42155;53.096;23.226;2023-03-15T09:17:52;99159.44;;;7.29;63.67
56241;BME280;42155;53.096;23.226;2023-03-15T09:19:53;99196.75;;;7.58;63.78
56241;BME280;42155;53.096;23.226;2023-03-15T09:21:53;99210.59;;;7.72;63.10
56241;BME280;42155;53.096;23.226;2023-03-15T09:23:53;99162.44;;;7.47;62.86
56241;BME280;42155;53.096;23.226;2023-03-15T09:25:54;99201.78;;;7.94;62.60
56241;BME280;42155;53.096;23.226;2023-03-15T09:27:54;99202.31;;;8.20;61.90
56241;BME280;42155;53.096;23.226;2023-03-15T09:29:54;99205.25;;;8.37;60.57
56241;BME280;42155;53.096;23.226;2023-03-15T09:31:55;99203.81;;;8.54;60.63
56241;BME280;42155;53.096;23.226;2023-03-15T09:33:55;99217.97;;;8.64;60.39
56241;BME280;42155;53.096;23.226;2023-03-15T09:35:55;99220.53;;;8.55;60.03
56241;BME280;42155;53.096;23.226;2023-03-15T09:37:56;99189.03;;;8.31;59.77
56241;BME280;42155;53.096;23.226;2023-03-15T09:39:56;99212.06;;;8.40;59.73
56241;BME280;42155;53.096;23.226;2023-03-15T09:41:56;99203.66;;;8.35;59.59
56241;BME280;42155;53.096;23.226;2023-03-15T09:44:11;99227.06;;;8.51;59.63
56241;BME280;42155;53.096;23.226;2023-03-15T09:52:39;99236.47;;;9.06;57.65
56241;BME280;42155;53.096;23.226;2023-03-15T09:55:39;99234.59;;;8.97;57.07
56241;BME280;42155;53.096;23.226;2023-03-15T09:57:35;99237.59;;;8.83;57.65
56241;BME280;42155;53.096;23.226;2023-03-15T09:59:40;99237.19;;;8.66;57.54
56241;BME280;42155;53.096;23.226;2023-03-15T10:01:41;99238.34;;;8.53;57.12
56241;BME280;42155;53.096;23.226;2023-03-15T10:03:49;99251.16;;;8.36;57.00
56241;BME280;42155;53.096;23.226;2023-03-15T10:06:04;99260.00;;;8.35;56.71
56241;BME280;42155;53.096;23.226;2023-03-15T10:08:11;99250.66;;;8.31;57.01
56241;BME280;42155;53.096;23.226;2023-03-15T10:10:17;99231.84;;;8.25;57.22
56241;BME280;42155;53.096;23.226;2023-03-15T10:12:29;99238.47;;;8.51;57.12
56241;BME280;42155;53.096;23.226;2023-03-15T10:16:51;99244.88;;;8.70;56.52
56241;BME280;42155;53.096;23.226;2023-03-15T10:19:20;99208.22;;;8.44;56.40
56241;BME280;42155;53.096;23.226;2023-03-15T10:21:32;99254.28;;;8.62;56.52
56241;BME280;42155;53.096;23.226;2023-03-15T10:23:45;99234.78;;;8.31;56.39
56241;BME280;42155;53.096;23.226;2023-03-15T10:25:49;99251.50;;;8.43;56.25
56241;BME280;42155;53.096;23.226;2023-03-15T10:28:09;99260.56;;;8.50;55.38
56241;BME280;42155;53.096;23.226;2023-03-15T10:30:23;99256.44;;;8.36;55.64
56241;BME280;42155;53.096;23.226;2023-03-15T10:32:29;99233.59;;;8.03;55.71
56241;BME280;42155;53.096;23.226;2023-03-15T10:34:30;99180.16;;;7.68;55.66
56241;BME280;42155;53.096;23.226;2023-03-15T10:36:31;99251.31;;;8.12;55.82
56241;BME280;42155;53.096;23.226;2023-03-15T10:38:31;99264.97;;;8.29;55.50
56241;BME280;42155;53.096;23.226;2023-03-15T10:40:46;99265.59;;;8.21;55.28
56241;BME280;42155;53.096;23.226;2023-03-15T10:42:47;99272.84;;;8.19;55.49
56241;BME280;42155;53.096;23.226;2023-03-15T10:44:48;99279.56;;;8.12;55.38
56241;BME280;42155;53.096;23.226;2023-03-15T10:53:18;99255.03;;;7.78;55.83
56241;BME280;42155;53.096;23.226;2023-03-15T10:55:36;99293.88;;;8.09;54.77
56241;BME280;42155;53.096;23.226;2023-03-15T10:57:52;99287.22;;;8.26;53.99
56241;BME280;42155;53.096;23.226;2023-03-15T10:59:56;99289.72;;;7.96;54.28
56241;BME280;42155;53.096;23.226;2023-03-15T11:02:26;99295.63;;;7.77;55.26
56241;BME280;42155;53.096;23.226;2023-03-15T11:04:26;99310.75;;;7.86;54.92
56241;BME280;42155;53.096;23.226;2023-03-15T11:06:27;99306.66;;;7.82;54.28
56241;BME280;42155;53.096;23.226;2023-03-15T11:08:39;99306.28;;;7.53;54.14
56241;BME280;42155;53.096;23.226;2023-03-15T11:10:41;99321.91;;;7.45;54.88